This is the latest recevied weather packets stored in our database for station/object KD8ZLZ. If no packets are shown the sender has not sent any weather packets the latest 10 day(s).
| Time | Temp. | Humidity | Pressure | Rain* | Wind** | Luminosity | Snow |
|---|---|---|---|---|---|---|---|
| 1777590930 | 11.67° C | 40% | 1014.6 hPa | 0 mm | - | - | - |
| 1777590051 | 12.22° C | 38% | 1014.7 hPa | 0 mm | - | - | - |
| 1777579530 | 12.78° C | 39% | 1014.7 hPa | 0 mm | - | - | - |
| 1777578950 | 13.33° C | 38% | 1014.7 hPa | 0 mm | - | - | - |
| 1777578629 | 12.22° C | 41% | 1015 hPa | 0 mm | - | - | - |
| 1777577730 | 12.78° C | 41% | 1015 hPa | 0 mm | - | - | - |
| 1777577130 | 13.33° C | 43% | 1015.1 hPa | 0 mm | - | - | - |
| 1777575630 | 12.22° C | 42% | 1015 hPa | 0 mm | - | - | - |
| 1777575030 | 12.78° C | 43% | 1015 hPa | 0 mm | - | - | - |
| 1777571730 | 11.11° C | 46% | 1015.3 hPa | 0 mm | - | - | - |
| 1777571129 | 11.11° C | 45% | 1015.3 hPa | 0 mm | - | - | - |
| 1777570530 | 12.22° C | 46% | 1015.3 hPa | 0 mm | - | - | - |
| 1777570230 | 11.11° C | 46% | 1015.3 hPa | 0 mm | - | - | - |
| 1777569330 | 11.67° C | 47% | 1015.3 hPa | 0 mm | - | - | - |
| 1777567530 | 11.67° C | 46% | 1015.7 hPa | 0 mm | - | - | - |
| 1777566930 | 10.56° C | 50% | 1015.6 hPa | 0 mm | - | - | - |
| 1777566350 | 11.11° C | 48% | 1015.7 hPa | 0 mm | - | - | - |
| 1777565130 | 10.56° C | 52% | 1015.7 hPa | 0 mm | - | - | - |
| 1777564830 | 10.56° C | 53% | 1015.7 hPa | 0 mm | - | - | - |
| 1777564550 | 10° C | 56% | 1015.6 hPa | 0 mm | - | - | - |
| 1777559751 | 9.44° C | 61% | 1015.3 hPa | 0 mm | - | - | - |
| 1777557951 | 8.89° C | 64% | 1015.3 hPa | 0 mm | - | - | - |
| 1777556430 | 8.33° C | 68% | 1015 hPa | 0 mm | - | - | - |
| 1777554030 | 7.22° C | 77% | 1015.3 hPa | 0 mm | - | - | - |
| 1777550730 | 6.11° C | 85% | 1014.9 hPa | 0 mm | - | - | - |
* Rain latest hour (hover to see other rain measurements)
** Current wind speed in m/s (hover to see current wind gust speed)